createdAt,value
2022-07-26T00:01:40.653Z,1.42
2022-07-26T00:06:42.846Z,1.58
2022-07-26T00:12:09.768Z,2.03
2022-07-26T00:17:12.408Z,1.30
2022-07-26T00:22:32.336Z,1.70
2022-07-26T00:27:38.919Z,1.58
2022-07-26T00:32:40.893Z,1.60
2022-07-26T00:37:42.584Z,1.10
2022-07-26T00:42:44.884Z,1.67
2022-07-26T00:47:46.601Z,1.50
2022-07-26T00:52:50.406Z,1.30
2022-07-26T00:57:52.263Z,1.38
2022-07-26T01:02:58.209Z,1.42
2022-07-26T01:08:00.159Z,1.20
2022-07-26T01:13:02.268Z,0.70
2022-07-26T01:18:04.165Z,1.10
2022-07-26T01:23:09.429Z,1.42
2022-07-26T01:28:11.647Z,1.08
2022-07-26T01:33:21.984Z,1.55
2022-07-26T01:38:25.390Z,1.00
2022-07-26T01:43:27.932Z,1.45
2022-07-26T01:48:31.857Z,1.10
2022-07-26T01:53:33.918Z,1.38
2022-07-26T01:58:35.724Z,1.17
2022-07-26T02:03:52.777Z,0.68
2022-07-26T02:08:54.638Z,1.08
2022-07-26T02:13:57.358Z,1.33
2022-07-26T02:18:59.178Z,0.90
2022-07-26T02:24:01.211Z,1.42
2022-07-26T02:29:03.183Z,2.17
2022-07-26T02:34:05.276Z,1.00
2022-07-26T02:39:07.556Z,1.33
2022-07-26T02:44:10.318Z,1.00
2022-07-26T02:49:12.876Z,1.02
2022-07-26T02:54:15.137Z,1.17
2022-07-26T02:59:16.882Z,1.13
2022-07-26T03:04:21.130Z,1.00
2022-07-26T03:09:23.020Z,1.33
2022-07-26T03:14:25.332Z,3.38
2022-07-26T03:19:27.208Z,2.45
2022-07-26T03:24:29.310Z,3.03
2022-07-26T03:29:31.205Z,1.88
2022-07-26T03:34:33.637Z,1.90
2022-07-26T03:39:41.672Z,2.30
2022-07-26T03:44:49.632Z,2.58
2022-07-26T03:49:53.407Z,1.92
2022-07-26T03:54:55.701Z,2.28
2022-07-26T03:59:57.602Z,1.45
2022-07-26T04:05:06.916Z,1.00
2022-07-26T04:10:11.064Z,1.00
2022-07-26T04:15:13.097Z,1.38
2022-07-26T04:20:15.539Z,1.10
2022-07-26T04:25:42.258Z,1.25
2022-07-26T04:30:44.807Z,1.10
2022-07-26T04:35:46.639Z,0.65
2022-07-26T04:40:50.300Z,0.90
2022-07-26T04:45:52.658Z,1.00
2022-07-26T04:51:01.503Z,1.25
2022-07-26T04:56:03.382Z,1.27
2022-07-26T05:01:10.622Z,1.02
2022-07-26T05:06:13.076Z,1.75
2022-07-26T05:11:15.005Z,1.35
2022-07-26T05:16:18.881Z,1.00
2022-07-26T05:21:22.990Z,1.92
2022-07-26T05:26:24.859Z,0.93
2022-07-26T05:31:26.832Z,1.23
2022-07-26T05:36:28.698Z,1.00
2022-07-26T05:41:30.633Z,1.30
2022-07-26T05:46:32.677Z,2.15
2022-07-26T05:51:34.746Z,1.48
2022-07-26T05:56:36.648Z,1.20
2022-07-26T06:01:38.541Z,0.93
2022-07-26T06:06:40.496Z,0.90
2022-07-26T06:11:42.389Z,0.77
2022-07-26T06:16:47.368Z,1.20
2022-07-26T06:21:49.286Z,1.13
2022-07-26T06:26:56.873Z,0.73
2022-07-26T06:31:59.285Z,0.77
2022-07-26T06:37:01.156Z,0.63
2022-07-26T06:42:03.044Z,1.00
2022-07-26T06:47:05.628Z,1.42
2022-07-26T06:52:07.457Z,0.90
2022-07-26T06:57:11.616Z,0.85
2022-07-26T07:02:13.514Z,1.00
2022-07-26T07:07:16.488Z,1.13
2022-07-26T07:12:18.698Z,0.77
2022-07-26T07:17:22.164Z,0.63
2022-07-26T07:22:25.256Z,0.95
2022-07-26T07:27:28.729Z,0.50
2022-07-26T07:32:31.864Z,0.70
2022-07-26T07:37:53.684Z,0.73
2022-07-26T07:42:56.134Z,0.50
2022-07-26T07:47:59.571Z,0.60
2022-07-26T07:53:02.148Z,0.30
2022-07-26T07:58:08.556Z,0.65
2022-07-26T08:03:11.927Z,0.80
2022-07-26T08:08:17.146Z,1.00
2022-07-26T08:13:25.743Z,0.60
2022-07-26T08:18:32.639Z,0.35
2022-07-26T08:23:34.755Z,1.30
2022-07-26T08:28:59.427Z,0.68
2022-07-26T08:33:58.582Z,0.85
2022-07-26T08:39:01.584Z,1.20
2022-07-26T08:44:08.349Z,1.33
2022-07-26T08:49:13.174Z,1.20
2022-07-26T08:54:21.194Z,0.85
2022-07-26T08:59:24.217Z,0.95
2022-07-26T09:04:44.229Z,0.75
2022-07-26T09:09:59.886Z,1.00
2022-07-26T09:15:04.066Z,1.50
2022-07-26T09:20:24.346Z,1.10
2022-07-26T09:25:32.562Z,0.98
2022-07-26T09:31:05.133Z,1.02
2022-07-26T09:36:08.897Z,1.17
2022-07-26T09:41:21.413Z,1.20
2022-07-26T09:46:56.485Z,0.70
2022-07-26T09:52:17.447Z,0.82
2022-07-26T09:57:20.605Z,0.82
2022-07-26T10:02:22.345Z,1.15
2022-07-26T10:07:27.097Z,1.08
2022-07-26T10:12:34.403Z,1.27
2022-07-26T10:17:43.620Z,1.48
2022-07-26T10:22:48.961Z,1.40
2022-07-26T10:27:56.090Z,1.42
2022-07-26T10:33:03.500Z,1.23
2022-07-26T10:38:10.029Z,0.85
2022-07-26T10:48:59.358Z,1.55
2022-07-26T10:54:01.980Z,1.58
2022-07-26T10:59:05.467Z,1.27
2022-07-26T11:04:21.514Z,1.30
2022-07-26T11:09:23.653Z,1.10
2022-07-26T11:14:26.133Z,1.08
2022-07-26T11:19:30.361Z,1.42
2022-07-26T11:24:39.057Z,1.40
2022-07-26T11:29:41.595Z,1.40
2022-07-26T11:34:46.116Z,1.20
2022-07-26T11:39:47.832Z,1.30
2022-07-26T11:44:55.056Z,1.00
2022-07-26T11:50:21.621Z,0.60
2022-07-26T11:55:31.285Z,1.10
2022-07-26T12:00:33.239Z,1.43
2022-07-26T12:05:35.169Z,1.48
2022-07-26T12:10:42.825Z,1.00
2022-07-26T12:15:51.452Z,0.77
2022-07-26T12:21:11.398Z,0.70
2022-07-26T12:26:26.161Z,0.80
2022-07-26T12:31:32.983Z,1.13
2022-07-26T12:36:35.293Z,0.70
2022-07-26T12:41:40.805Z,0.75
2022-07-26T12:46:46.583Z,0.80
2022-07-26T12:51:48.619Z,0.77
2022-07-26T12:56:50.573Z,0.98
2022-07-26T13:01:53.005Z,1.30
2022-07-26T13:06:54.842Z,1.13
2022-07-26T13:11:57.660Z,1.13
2022-07-26T13:16:59.818Z,1.42
2022-07-26T13:22:02.603Z,0.80
2022-07-26T13:27:07.146Z,1.00
2022-07-26T13:32:09.136Z,0.90
2022-07-26T13:37:13.276Z,1.23
2022-07-26T13:42:17.073Z,1.10
2022-07-26T13:47:18.962Z,0.80
2022-07-26T13:52:20.855Z,0.70
2022-07-26T13:57:22.647Z,1.00
2022-07-26T14:02:24.634Z,0.98
2022-07-26T14:07:29.742Z,0.80
2022-07-26T14:12:31.639Z,0.73
2022-07-26T14:17:33.496Z,0.70
2022-07-26T14:22:35.438Z,0.90
2022-07-26T14:27:37.338Z,0.68
2022-07-26T14:32:39.226Z,0.73
2022-07-26T14:37:43.893Z,1.17
2022-07-26T14:42:47.223Z,1.08
2022-07-26T14:47:48.915Z,1.08
2022-07-26T14:52:50.737Z,0.82
2022-07-26T14:57:52.747Z,0.65
2022-07-26T15:02:56.827Z,0.73
2022-07-26T15:08:05.582Z,0.70
2022-07-26T15:13:09.239Z,0.70
2022-07-26T15:18:11.033Z,1.10
2022-07-26T15:23:13.848Z,0.73
2022-07-26T15:28:16.720Z,0.68
2022-07-26T15:33:20.086Z,0.68
2022-07-26T15:38:22.644Z,0.70
2022-07-26T15:43:46.090Z,0.82
2022-07-26T15:48:47.462Z,1.40
2022-07-26T15:53:49.339Z,0.60
2022-07-26T15:58:51.086Z,0.95
2022-07-26T16:03:52.742Z,1.17
2022-07-26T16:09:15.557Z,1.00
2022-07-26T16:14:18.601Z,0.60
2022-07-26T16:19:20.483Z,0.40
2022-07-26T16:24:23.061Z,0.93
2022-07-26T16:29:28.649Z,0.85
2022-07-26T16:34:32.741Z,0.95
2022-07-26T16:39:35.634Z,0.73
2022-07-26T16:44:39.368Z,0.90
2022-07-26T16:49:41.239Z,1.98
2022-07-26T16:54:43.814Z,0.90
2022-07-26T16:59:45.565Z,1.30
2022-07-26T17:04:47.243Z,1.38
2022-07-26T17:09:49.066Z,0.88
2022-07-26T17:14:51.672Z,0.80
2022-07-26T17:19:54.548Z,1.05
2022-07-26T17:30:13.612Z,0.88
2022-07-26T17:35:15.819Z,0.80
2022-07-26T17:40:17.955Z,0.50
2022-07-26T17:45:20.344Z,0.85
2022-07-26T17:50:38.595Z,0.47
2022-07-26T17:55:40.592Z,0.68
2022-07-26T18:00:45.467Z,0.60
2022-07-26T18:05:47.649Z,1.15
2022-07-26T18:10:51.375Z,0.80
2022-07-26T18:15:53.612Z,0.85
2022-07-26T18:20:55.333Z,0.43
2022-07-26T18:25:59.264Z,0.73
2022-07-26T18:31:01.155Z,0.70
2022-07-26T18:36:03.043Z,0.50
2022-07-26T18:41:05.086Z,0.52
2022-07-26T18:46:07.245Z,0.20
2022-07-26T18:51:09.130Z,0.60
2022-07-26T18:56:10.985Z,0.57
2022-07-26T19:01:13.570Z,0.43
2022-07-26T19:06:15.493Z,0.70
2022-07-26T19:11:45.921Z,0.35
2022-07-26T19:16:47.988Z,0.50
2022-07-26T19:21:53.740Z,0.40
2022-07-26T19:26:59.869Z,0.50
2022-07-26T19:32:01.896Z,0.45
2022-07-26T19:37:03.729Z,0.43
2022-07-26T19:42:05.628Z,0.35
2022-07-26T19:47:07.842Z,0.80
2022-07-26T19:52:11.725Z,0.68
2022-07-26T19:57:23.066Z,0.50
2022-07-26T20:02:24.999Z,0.70
2022-07-26T20:07:26.896Z,0.75
2022-07-26T20:12:28.936Z,0.80
2022-07-26T20:17:35.460Z,0.70
2022-07-26T20:22:37.388Z,0.68
2022-07-26T20:27:39.081Z,0.60
2022-07-26T20:32:40.797Z,1.13
2022-07-26T20:37:43.607Z,1.10
2022-07-26T20:42:45.277Z,0.70
2022-07-26T20:47:53.051Z,0.52
2022-07-26T20:52:57.126Z,0.52
2022-07-26T20:57:58.891Z,0.50
2022-07-26T21:03:01.780Z,0.95
2022-07-26T21:08:04.113Z,0.85
2022-07-26T21:13:05.910Z,0.82
2022-07-26T21:18:07.933Z,0.73
2022-07-26T21:23:17.339Z,0.80
2022-07-26T21:28:20.965Z,0.85
2022-07-26T21:33:26.177Z,0.63
2022-07-26T21:38:31.889Z,0.50
2022-07-26T21:43:33.742Z,0.70
2022-07-26T21:48:35.420Z,0.52
2022-07-26T21:53:37.046Z,0.60
2022-07-26T21:58:38.874Z,0.75
2022-07-26T22:03:42.861Z,1.00
2022-07-26T22:08:45.089Z,0.60
2022-07-26T22:13:46.874Z,0.95
2022-07-26T22:18:49.197Z,0.70
2022-07-26T22:23:51.079Z,0.63
2022-07-26T22:28:53.003Z,0.65
2022-07-26T22:33:54.625Z,0.93
2022-07-26T22:38:56.271Z,1.33
2022-07-26T22:43:57.832Z,0.70
2022-07-26T22:48:59.524Z,1.13
2022-07-26T22:54:01.273Z,1.40
2022-07-26T22:59:02.855Z,1.70
2022-07-26T23:04:07.160Z,0.60
2022-07-26T23:09:10.360Z,0.88
2022-07-26T23:14:12.165Z,0.85
2022-07-26T23:19:14.194Z,0.73
2022-07-26T23:24:16.168Z,0.75
2022-07-26T23:29:17.719Z,0.60
2022-07-26T23:34:19.454Z,0.60
2022-07-26T23:39:22.244Z,0.55
2022-07-26T23:44:23.899Z,0.50
2022-07-26T23:49:26.102Z,0.50
2022-07-26T23:54:30.987Z,0.60
2022-07-26T23:59:32.652Z,0.30
